createdAt,value
2023-03-13T00:03:57.591Z,3.10
2023-03-13T00:14:04.221Z,3.20
2023-03-13T00:24:12.463Z,3.30
2023-03-13T00:34:16.311Z,3.50
2023-03-13T00:44:21.556Z,3.60
2023-03-13T00:54:25.313Z,3.80
2023-03-13T01:04:30.589Z,3.80
2023-03-13T01:14:34.369Z,3.80
2023-03-13T01:24:39.621Z,3.70
2023-03-13T01:34:43.547Z,3.70
2023-03-13T01:44:57.307Z,3.70
2023-03-13T01:55:09.570Z,3.70
2023-03-13T02:05:18.649Z,3.80
2023-03-13T02:15:28.103Z,3.80
2023-03-13T02:25:43.657Z,3.90
2023-03-13T02:35:50.150Z,4.00
2023-03-13T02:46:08.324Z,4.00
2023-03-13T02:56:19.512Z,4.10
2023-03-13T03:06:25.835Z,4.20
2023-03-13T03:16:31.790Z,4.30
2023-03-13T03:26:37.666Z,4.30
2023-03-13T03:36:48.191Z,4.40
2023-03-13T03:46:53.523Z,4.40
2023-03-13T03:56:58.700Z,4.50
2023-03-13T04:07:04.225Z,4.60
2023-03-13T04:17:09.910Z,4.60
2023-03-13T04:27:15.732Z,4.60
2023-03-13T04:37:22.004Z,4.60
2023-03-13T04:47:39.214Z,4.60
2023-03-13T04:58:05.903Z,4.60
2023-03-13T05:08:33.362Z,4.70
2023-03-13T05:19:00.979Z,4.70
2023-03-13T05:29:19.432Z,4.80
2023-03-13T05:39:36.722Z,5.00
2023-03-13T05:49:59.449Z,5.10
2023-03-13T06:00:22.402Z,5.40
2023-03-13T06:10:41.126Z,5.60
2023-03-13T06:20:45.056Z,5.90
2023-03-13T06:30:50.450Z,6.20
2023-03-13T06:40:54.900Z,6.30
2023-03-13T06:51:00.138Z,7.00
2023-03-13T07:01:09.216Z,7.60
2023-03-13T07:11:17.358Z,8.30
2023-03-13T07:21:21.062Z,9.60
2023-03-13T07:31:26.728Z,8.90
2023-03-13T07:41:30.556Z,9.50
2023-03-13T07:51:43.359Z,12.10
2023-03-13T08:01:48.008Z,15.80
2023-03-13T08:11:53.306Z,16.50
2023-03-13T08:21:57.154Z,14.80
2023-03-13T08:32:02.342Z,14.70
2023-03-13T08:42:06.641Z,14.20
2023-03-13T08:52:12.168Z,14.10
2023-03-13T09:23:53.732Z,25.70
2023-03-13T10:12:44.765Z,27.10
2023-03-13T10:22:52.670Z,30.90
2023-03-13T10:33:01.414Z,33.50
2023-03-13T10:43:07.617Z,35.90
2023-03-13T10:53:34.355Z,36.60
2023-03-13T11:03:37.874Z,37.40
2023-03-13T11:13:45.259Z,31.40
2023-03-13T11:23:55.841Z,26.60
2023-03-13T11:34:07.869Z,22.20
2023-03-13T11:44:45.157Z,19.00
2023-03-13T11:55:14.331Z,17.20
2023-03-13T12:05:21.447Z,15.80
2023-03-13T12:15:31.345Z,14.90
2023-03-13T12:25:39.951Z,14.30
2023-03-13T12:35:49.365Z,13.90
2023-03-13T12:46:24.723Z,14.20
2023-03-13T12:56:43.986Z,15.00
2023-03-13T13:07:02.412Z,15.70
2023-03-13T13:17:21.810Z,15.00
2023-03-13T13:27:47.962Z,14.60
2023-03-13T13:37:53.329Z,14.20
2023-03-13T13:48:36.000Z,14.10
2023-03-13T13:58:46.922Z,13.90
2023-03-13T14:08:55.590Z,13.40
2023-03-13T14:19:00.496Z,12.10
2023-03-13T14:29:07.728Z,11.60
2023-03-13T14:39:20.784Z,11.50
2023-03-13T14:49:29.649Z,11.20
2023-03-13T14:59:34.637Z,11.00
2023-03-13T15:09:43.993Z,10.90
2023-03-13T15:19:54.931Z,10.90
2023-03-13T15:29:58.470Z,10.90
2023-03-13T15:40:07.599Z,10.80
2023-03-13T15:50:14.639Z,10.50
2023-03-13T16:00:22.671Z,10.30
2023-03-13T16:10:29.943Z,10.20
2023-03-13T16:20:36.046Z,10.10
2023-03-13T16:30:41.468Z,10.10
2023-03-13T16:40:46.968Z,9.90
2023-03-13T16:50:50.707Z,9.90
2023-03-13T17:01:05.070Z,9.60
2023-03-13T17:11:14.965Z,9.70
2023-03-13T17:21:23.608Z,9.50
2023-03-13T17:31:29.241Z,9.30
2023-03-13T17:41:36.447Z,9.20
2023-03-13T17:51:41.514Z,8.90
2023-03-13T18:01:47.059Z,8.80
2023-03-13T18:11:51.605Z,8.70
2023-03-13T18:21:57.162Z,8.40
2023-03-13T18:32:01.433Z,8.40
2023-03-13T18:42:07.948Z,8.30
2023-03-13T18:52:13.231Z,8.00
2023-03-13T19:02:19.877Z,7.80
2023-03-13T19:12:23.361Z,7.60
2023-03-13T19:22:28.563Z,7.40
2023-03-13T19:32:32.070Z,7.10
2023-03-13T19:42:36.859Z,6.80
2023-03-13T19:52:40.667Z,6.60
2023-03-13T20:02:45.768Z,6.20
2023-03-13T20:12:49.318Z,6.00
2023-03-13T20:22:56.444Z,5.70
2023-03-13T20:33:00.293Z,5.40
2023-03-13T20:43:05.708Z,5.30
2023-03-13T20:53:10.120Z,5.40
2023-03-13T21:03:15.321Z,5.40
2023-03-13T21:13:18.766Z,5.60
2023-03-13T21:23:24.664Z,6.00
2023-03-13T21:33:28.163Z,5.90
2023-03-13T21:43:32.984Z,5.70
2023-03-13T21:53:36.706Z,5.60
2023-03-13T22:03:42.091Z,5.60
2023-03-13T22:13:45.784Z,5.70
2023-03-13T22:23:50.704Z,6.10
2023-03-13T22:33:54.153Z,6.90
2023-03-13T22:43:58.960Z,7.30
2023-03-13T22:54:02.405Z,7.30
2023-03-13T23:04:07.569Z,7.00
2023-03-13T23:14:11.011Z,7.40
2023-03-13T23:24:15.931Z,7.40
2023-03-13T23:34:21.994Z,7.20
2023-03-13T23:44:27.011Z,7.00
2023-03-13T23:54:30.473Z,6.90
